Time;durP1;ratioP1;P1;durP2;ratioP2;P2;SDS_P1;SDS_P2;PMS_P1;PMS_P2;Temp;Humidity;BMP_temperature;BMP_pressure;BME280_temperature;BME280_humidity;BME280_pressure;Samples;Min_cycle;Max_cycle;Signal;HPM_P1;HPM_P2
2021/07/18 00:01:59;;;;;;;6.53;2.93;;;19.30;88.10;;;;;;5071683;28;20350;-80
2021/07/18 00:04:25;;;;;;;3.93;2.83;;;19.30;88.00;;;;;;5072783;28;20274;-80
2021/07/18 00:06:51;;;;;;;6.97;3.10;;;19.30;88.40;;;;;;5073709;28;20177;-80
2021/07/18 00:09:16;;;;;;;6.40;3.00;;;19.30;87.80;;;;;;5073251;28;20212;-80
2021/07/18 00:11:42;;;;;;;5.20;3.20;;;19.30;87.30;;;;;;5072088;28;20221;-80
2021/07/18 00:14:11;;;;;;;5.10;3.03;;;19.40;88.00;;;;;;5072580;28;20223;-80
2021/07/18 00:16:37;;;;;;;6.87;3.50;;;19.40;88.10;;;;;;5072297;28;20209;-79
2021/07/18 00:19:05;;;;;;;5.53;2.80;;;19.30;88.60;;;;;;5075745;28;20574;-79
2021/07/18 00:21:31;;;;;;;4.00;2.47;;;19.30;88.10;;;;;;5075837;28;20699;-80
2021/07/18 00:23:57;;;;;;;6.80;2.90;;;19.20;89.70;;;;;;5075881;28;20285;-79
2021/07/18 00:26:24;;;;;;;4.97;2.93;;;19.20;90.20;;;;;;5075667;28;20203;-79
2021/07/18 00:28:50;;;;;;;5.80;2.90;;;19.20;90.50;;;;;;5074614;28;20177;-79
2021/07/18 00:31:16;;;;;;;6.43;3.40;;;19.10;90.70;;;;;;5075718;28;20171;-78
2021/07/18 00:33:41;;;;;;;4.57;2.97;;;19.10;91.20;;;;;;5075607;28;20171;-80
2021/07/18 00:36:07;;;;;;;5.90;3.50;;;19.00;91.20;;;;;;5075920;28;20164;-79
2021/07/18 00:38:33;;;;;;;5.13;3.10;;;19.10;91.30;;;;;;5075539;28;20168;-79
2021/07/18 00:40:59;;;;;;;9.33;3.13;;;19.00;91.30;;;;;;5075368;28;20524;-77
2021/07/18 00:43:25;;;;;;;6.97;3.27;;;19.00;91.80;;;;;;5075146;28;20219;-79
2021/07/18 00:45:58;;;;;;;5.40;3.07;;;19.00;91.70;;;;;;5075506;28;20180;-81
2021/07/18 00:48:27;;;;;;;5.67;3.07;;;19.00;91.80;;;;;;5075410;28;20206;-81
2021/07/18 00:50:54;;;;;;;7.20;3.23;;;19.10;91.70;;;;;;5075469;28;20628;-79
2021/07/18 00:53:20;;;;;;;5.43;3.03;;;19.10;91.90;;;;;;5075339;28;20160;-81
2021/07/18 00:55:46;;;;;;;6.37;3.37;;;19.00;92.10;;;;;;5075114;28;20164;-79
2021/07/18 00:58:13;;;;;;;5.93;3.77;;;19.00;92.30;;;;;;5075326;28;20166;-80
2021/07/18 01:00:39;;;;;;;5.27;3.37;;;19.00;92.70;;;;;;5075217;28;20608;-79
2021/07/18 01:03:05;;;;;;;7.50;3.50;;;18.80;93.30;;;;;;5082942;28;20239;-77
2021/07/18 01:05:31;;;;;;;5.77;3.47;;;18.70;93.60;;;;;;5075037;28;20183;-79
2021/07/18 01:07:57;;;;;;;6.47;3.53;;;18.80;94.20;;;;;;5075185;28;20632;-79
2021/07/18 01:10:22;;;;;;;6.20;3.80;;;18.70;93.90;;;;;;5075263;28;20176;-79
2021/07/18 01:12:48;;;;;;;5.40;3.70;;;18.70;94.30;;;;;;5075118;28;20168;-79
2021/07/18 01:15:14;;;;;;;5.13;3.60;;;18.80;94.40;;;;;;5075063;28;20160;-79
2021/07/18 01:17:40;;;;;;;6.60;3.47;;;18.60;95.40;;;;;;5074815;28;20168;-80
2021/07/18 01:20:10;;;;;;;6.03;3.70;;;18.60;95.10;;;;;;5073761;28;20640;-80
2021/07/18 01:22:37;;;;;;;7.00;4.20;;;18.50;95.40;;;;;;5073497;28;20200;-78
2021/07/18 01:25:05;;;;;;;6.93;3.87;;;18.60;95.40;;;;;;5073249;28;20221;-80
2021/07/18 01:27:31;;;;;;;6.83;3.97;;;18.60;95.40;;;;;;5076306;28;20199;-79
2021/07/18 01:29:58;;;;;;;6.37;4.53;;;18.60;95.30;;;;;;5074304;28;20545;-79
2021/07/18 01:32:23;;;;;;;7.17;3.73;;;18.70;95.40;;;;;;5073617;28;20181;-78
2021/07/18 01:34:49;;;;;;;7.57;4.03;;;18.70;94.80;;;;;;5074639;28;20258;-78
2021/07/18 01:37:16;;;;;;;7.33;4.40;;;18.70;94.80;;;;;;5073654;28;20176;-79
2021/07/18 01:39:41;;;;;;;6.97;4.20;;;18.70;95.10;;;;;;5074118;28;20177;-79
2021/07/18 01:42:07;;;;;;;8.40;4.70;;;18.70;95.30;;;;;;5074415;28;20608;-79
2021/07/18 01:44:33;;;;;;;7.87;4.47;;;18.60;95.60;;;;;;5074119;28;20255;-79
2021/07/18 01:46:59;;;;;;;6.60;4.20;;;18.60;95.30;;;;;;5074645;28;20180;-80
2021/07/18 01:49:24;;;;;;;7.77;4.20;;;18.60;95.60;;;;;;5074899;28;20190;-79
2021/07/18 01:51:50;;;;;;;7.23;4.13;;;18.60;95.80;;;;;;5074406;28;20222;-79
2021/07/18 01:54:17;;;;;;;7.40;4.40;;;18.70;95.90;;;;;;5074377;28;20171;-78
2021/07/18 01:56:43;;;;;;;6.50;3.90;;;18.60;96.10;;;;;;5076239;28;20217;-80
2021/07/18 01:59:08;;;;;;;7.40;4.23;;;18.70;95.90;;;;;;5078204;28;20648;-81
2021/07/18 02:01:35;;;;;;;6.83;4.07;;;18.70;96.00;;;;;;5078752;28;20160;-81
2021/07/18 02:04:02;;;;;;;6.50;4.17;;;18.50;96.20;;;;;;5093028;28;20172;-79
2021/07/18 02:06:29;;;;;;;6.00;4.23;;;18.60;96.20;;;;;;5091141;28;20215;-79
2021/07/18 02:08:57;;;;;;;7.07;4.30;;;18.50;96.40;;;;;;5095901;28;20176;-80
2021/07/18 02:11:24;;;;;;;6.40;4.70;;;18.50;96.50;;;;;;5092261;28;20164;-80
2021/07/18 02:13:52;;;;;;;7.63;4.47;;;18.40;96.90;;;;;;5094105;28;20180;-77
2021/07/18 02:16:18;;;;;;;6.73;4.90;;;18.30;97.40;;;;;;5081726;28;20187;-79
2021/07/18 02:18:45;;;;;;;7.87;4.63;;;18.30;97.40;;;;;;5075793;28;20171;-79
2021/07/18 02:21:12;;;;;;;6.03;4.83;;;18.20;97.70;;;;;;5079957;28;20164;-79
2021/07/18 02:23:39;;;;;;;7.00;4.60;;;18.20;97.90;;;;;;5079963;28;20209;-79
2021/07/18 02:26:05;;;;;;;8.93;4.83;;;18.30;97.80;;;;;;5080125;28;20639;-78
2021/07/18 02:28:31;;;;;;;7.70;5.20;;;18.30;98.00;;;;;;5077965;28;20172;-80
2021/07/18 02:30:57;;;;;;;6.53;5.03;;;18.30;98.00;;;;;;5078215;28;20201;-77
2021/07/18 02:33:23;;;;;;;8.77;5.23;;;18.20;98.20;;;;;;5074470;28;20172;-79
2021/07/18 02:35:49;;;;;;;8.13;5.23;;;18.20;98.30;;;;;;5074859;28;20233;-80
2021/07/18 02:38:15;;;;;;;7.17;4.80;;;18.20;98.30;;;;;;5087960;28;20267;-77
2021/07/18 02:40:41;;;;;;;8.23;5.10;;;18.10;98.20;;;;;;5085942;28;20180;-79
2021/07/18 02:43:07;;;;;;;7.53;5.13;;;18.10;98.80;;;;;;5076312;28;20207;-79
2021/07/18 02:45:33;;;;;;;8.17;4.93;;;18.00;98.80;;;;;;5073595;28;20181;-79
2021/07/18 02:47:59;;;;;;;8.83;5.07;;;17.90;99.10;;;;;;5073476;28;20249;-79
2021/07/18 02:50:28;;;;;;;7.77;5.10;;;17.90;99.60;;;;;;5073192;28;20179;-77
2021/07/18 02:52:54;;;;;;;6.73;4.63;;;17.90;99.80;;;;;;5073528;28;20520;-80
2021/07/18 02:55:20;;;;;;;6.97;5.33;;;17.90;99.60;;;;;;5073709;28;20165;-79
2021/07/18 02:57:47;;;;;;;10.23;5.60;;;17.90;99.30;;;;;;5073295;28;20160;-80
2021/07/18 03:00:15;;;;;;;7.00;5.20;;;18.00;99.40;;;;;;5073288;28;20164;-79
2021/07/18 03:02:42;;;;;;;8.10;5.30;;;17.90;99.20;;;;;;5073089;28;20661;-80
2021/07/18 03:05:10;;;;;;;9.43;5.83;;;17.90;99.30;;;;;;5072940;28;20179;-79
2021/07/18 03:07:37;;;;;;;7.93;5.90;;;17.90;99.40;;;;;;5073255;28;20218;-79
2021/07/18 03:10:04;;;;;;;9.13;5.67;;;17.90;99.40;;;;;;5072913;28;20185;-79
2021/07/18 03:12:31;;;;;;;8.23;6.10;;;17.80;99.90;;;;;;5071839;28;20589;-77
2021/07/18 03:14:58;;;;;;;9.13;5.77;;;17.80;99.90;;;;;;5073236;28;20156;-79
2021/07/18 03:17:24;;;;;;;7.50;5.30;;;17.80;99.90;;;;;;5073004;28;20161;-79
2021/07/18 03:19:51;;;;;;;7.23;5.47;;;17.80;99.90;;;;;;5072798;28;20176;-79
2021/07/18 03:22:17;;;;;;;8.43;5.43;;;17.90;99.90;;;;;;5071661;28;20257;-77
2021/07/18 03:24:43;;;;;;;7.10;5.40;;;17.90;99.90;;;;;;5072867;28;20587;-79
2021/07/18 03:27:08;;;;;;;9.53;5.83;;;17.90;99.60;;;;;;5072813;28;20177;-79
2021/07/18 03:29:34;;;;;;;8.80;5.70;;;17.90;99.50;;;;;;5073101;28;20242;-76
2021/07/18 03:32:00;;;;;;;8.00;5.70;;;17.90;99.60;;;;;;5072643;28;20651;-78
2021/07/18 03:34:25;;;;;;;7.30;5.53;;;17.90;99.90;;;;;;5073837;28;20176;-77
2021/07/18 03:36:51;;;;;;;7.13;5.17;;;17.80;99.90;;;;;;5074186;28;20211;-80
2021/07/18 03:39:17;;;;;;;8.53;5.70;;;17.90;99.90;;;;;;5073865;28;20172;-78
2021/07/18 03:41:42;;;;;;;9.43;6.07;;;17.80;99.90;;;;;;5074518;28;20625;-80
2021/07/18 03:44:08;;;;;;;9.87;5.73;;;17.90;99.90;;;;;;5077372;28;20192;-77
2021/07/18 03:46:33;;;;;;;8.33;5.73;;;17.80;99.90;;;;;;5074933;28;20180;-78
2021/07/18 03:48:59;;;;;;;8.47;5.97;;;17.70;99.90;;;;;;5072548;28;20172;-79
2021/07/18 03:51:25;;;;;;;9.03;6.07;;;17.60;99.90;;;;;;5073644;28;20179;-79
2021/07/18 03:53:50;;;;;;;9.63;5.97;;;17.60;99.90;;;;;;5076526;28;20169;-79
2021/07/18 03:56:17;;;;;;;9.23;5.53;;;17.70;99.90;;;;;;5076477;28;20544;-78
2021/07/18 03:58:43;;;;;;;7.53;6.03;;;17.80;99.90;;;;;;5076513;28;20164;-80
2021/07/18 04:01:12;;;;;;;7.40;5.33;;;17.80;99.90;;;;;;5076163;28;20172;-79
2021/07/18 04:03:39;;;;;;;9.17;6.20;;;17.90;99.90;;;;;;5075980;28;20200;-79
2021/07/18 04:06:04;;;;;;;8.67;5.97;;;17.90;99.90;;;;;;5076442;28;20171;-79
2021/07/18 04:08:30;;;;;;;9.33;5.93;;;17.80;99.90;;;;;;5076246;28;20529;-78
2021/07/18 04:10:57;;;;;;;10.40;6.57;;;17.80;99.90;;;;;;5076402;28;20176;-80
2021/07/18 04:13:23;;;;;;;8.43;6.10;;;17.80;99.90;;;;;;5076449;28;20652;-79
2021/07/18 04:15:48;;;;;;;8.60;6.13;;;17.80;99.90;;;;;;5076424;28;20165;-78
2021/07/18 04:18:14;;;;;;;8.93;6.27;;;17.90;99.90;;;;;;5075800;28;20235;-78
2021/07/18 04:20:40;;;;;;;10.30;6.40;;;18.00;99.90;;;;;;5076002;28;20234;-79
2021/07/18 04:23:07;;;;;;;10.47;6.53;;;17.90;99.90;;;;;;5075583;28;20214;-77
2021/07/18 04:25:33;;;;;;;7.87;6.20;;;18.00;99.90;;;;;;5076492;28;20205;-79
2021/07/18 04:27:59;;;;;;;10.13;6.40;;;18.00;99.80;;;;;;5076229;28;20168;-79
2021/07/18 04:30:24;;;;;;;10.33;6.63;;;18.10;99.70;;;;;;5075887;28;20168;-79
2021/07/18 04:32:50;;;;;;;9.77;6.10;;;18.10;99.30;;;;;;5075505;28;20168;-79
2021/07/18 04:35:16;;;;;;;10.63;6.57;;;18.20;99.40;;;;;;5075636;28;20165;-78
2021/07/18 04:37:42;;;;;;;7.47;6.47;;;18.20;99.20;;;;;;5075697;28;20165;-79
2021/07/18 04:40:10;;;;;;;9.60;6.47;;;18.40;98.90;;;;;;5075645;28;20180;-77
2021/07/18 04:42:37;;;;;;;8.47;6.97;;;18.40;98.10;;;;;;5075597;28;20215;-79
2021/07/18 04:45:04;;;;;;;9.43;6.67;;;18.50;97.50;;;;;;5075581;28;20193;-78
2021/07/18 04:47:29;;;;;;;9.17;6.60;;;18.60;96.70;;;;;;5075550;28;20247;-79
2021/07/18 04:49:55;;;;;;;8.17;6.37;;;18.60;96.30;;;;;;5075648;28;20255;-79
2021/07/18 04:52:21;;;;;;;7.87;6.33;;;18.70;95.80;;;;;;5075351;28;20503;-80
2021/07/18 04:54:46;;;;;;;11.50;7.27;;;18.70;95.70;;;;;;5075371;28;20168;-80
2021/07/18 04:57:12;;;;;;;10.67;6.90;;;18.60;95.90;;;;;;5075420;28;20200;-79
2021/07/18 04:59:38;;;;;;;9.67;6.70;;;18.40;96.50;;;;;;5075384;28;20161;-78
2021/07/18 05:02:04;;;;;;;9.20;7.07;;;18.60;96.60;;;;;;5074910;28;20211;-78
2021/07/18 05:04:29;;;;;;;9.30;7.03;;;18.50;96.40;;;;;;5074264;28;20160;-79
2021/07/18 05:06:55;;;;;;;9.20;7.27;;;18.40;96.80;;;;;;5075347;28;20250;-78
2021/07/18 05:09:20;;;;;;;10.43;7.30;;;18.50;97.00;;;;;;5075081;28;20644;-79
2021/07/18 05:11:46;;;;;;;12.80;7.13;;;18.50;96.70;;;;;;5075197;28;20264;-78
2021/07/18 05:14:12;;;;;;;9.77;7.20;;;18.50;97.00;;;;;;5075003;28;20531;-80
2021/07/18 05:16:38;;;;;;;10.80;7.10;;;18.60;96.60;;;;;;5073810;28;20172;-79
2021/07/18 05:19:03;;;;;;;10.20;7.50;;;18.60;96.30;;;;;;5074773;28;20692;-78
2021/07/18 05:21:29;;;;;;;9.97;7.87;;;18.60;96.60;;;;;;5075042;28;20187;-79
2021/07/18 05:23:54;;;;;;;11.67;7.43;;;18.50;96.70;;;;;;5074806;28;20738;-79
2021/07/18 05:26:20;;;;;;;12.17;7.93;;;18.40;97.00;;;;;;5074935;28;20544;-80
2021/07/18 05:28:46;;;;;;;11.97;7.30;;;18.50;97.40;;;;;;5074807;28;20179;-78
2021/07/18 05:31:12;;;;;;;11.33;8.30;;;18.50;97.40;;;;;;5074492;28;20819;-76
2021/07/18 05:33:37;;;;;;;10.50;7.57;;;18.50;97.10;;;;;;5077053;28;20189;-80
2021/07/18 05:36:03;;;;;;;10.97;7.80;;;18.50;97.10;;;;;;5087534;28;20175;-80
2021/07/18 05:38:29;;;;;;;11.53;7.23;;;18.40;97.70;;;;;;5089745;28;20176;-77
2021/07/18 05:40:55;;;;;;;11.13;7.83;;;18.50;97.70;;;;;;5095802;28;20255;-78
2021/07/18 05:43:21;;;;;;;12.70;8.03;;;18.50;97.80;;;;;;5096075;28;20188;-77
2021/07/18 05:45:47;;;;;;;11.77;7.27;;;18.60;97.60;;;;;;5098002;28;20179;-80
2021/07/18 05:48:19;;;;;;;9.70;7.03;;;18.60;97.40;;;;;;5075177;28;20619;-78
2021/07/18 05:50:47;;;;;;;10.60;7.80;;;18.70;97.20;;;;;;5075037;28;20712;-79
2021/07/18 05:53:13;;;;;;;10.43;7.93;;;18.60;97.60;;;;;;5074406;28;20168;-77
2021/07/18 05:55:38;;;;;;;10.93;7.50;;;18.80;97.30;;;;;;5074248;28;20169;-78
2021/07/18 05:58:04;;;;;;;8.87;6.97;;;18.80;97.00;;;;;;5074374;28;20168;-79
2021/07/18 06:00:29;;;;;;;11.83;7.77;;;18.80;96.70;;;;;;5074179;28;20259;-79
2021/07/18 06:02:55;;;;;;;12.70;7.33;;;18.80;96.50;;;;;;5074704;28;20212;-78
2021/07/18 06:05:21;;;;;;;9.97;7.03;;;18.80;96.60;;;;;;5076236;28;20198;-77
2021/07/18 06:07:46;;;;;;;8.23;6.63;;;18.90;96.90;;;;;;5092597;28;20632;-79
2021/07/18 06:10:13;;;;;;;9.17;7.50;;;19.10;97.50;;;;;;5088591;28;20243;-79
2021/07/18 06:12:40;;;;;;;9.50;6.93;;;19.10;96.30;;;;;;5074364;28;20239;-80
2021/07/18 06:15:06;;;;;;;10.63;7.00;;;19.30;96.30;;;;;;5072463;28;20180;-78
2021/07/18 06:17:35;;;;;;;8.23;5.93;;;19.30;94.80;;;;;;5074017;28;20169;-80
2021/07/18 06:20:03;;;;;;;9.27;6.23;;;19.30;94.20;;;;;;5073815;28;20231;-80
2021/07/18 06:22:29;;;;;;;8.80;6.23;;;19.20;94.30;;;;;;5073608;28;20202;-78
2021/07/18 06:24:54;;;;;;;9.93;6.40;;;19.40;95.60;;;;;;5073575;28;20278;-81
2021/07/18 06:27:20;;;;;;;10.10;6.33;;;19.30;95.40;;;;;;5073684;28;20624;-79
2021/07/18 06:29:47;;;;;;;8.67;5.83;;;19.50;94.10;;;;;;5073313;28;20203;-80
2021/07/18 06:32:13;;;;;;;7.87;6.20;;;19.60;93.40;;;;;;5073883;28;20177;-81
2021/07/18 06:34:39;;;;;;;10.70;5.90;;;19.70;92.20;;;;;;5075248;28;20652;-80
2021/07/18 06:37:05;;;;;;;11.13;6.67;;;19.60;90.80;;;;;;5073599;28;20172;-79
2021/07/18 06:39:30;;;;;;;11.87;7.37;;;19.60;92.10;;;;;;5073567;28;20164;-79
2021/07/18 06:41:56;;;;;;;8.23;6.23;;;19.80;90.90;;;;;;5073323;28;20242;-78
2021/07/18 06:44:23;;;;;;;7.23;5.60;;;19.70;88.90;;;;;;5073736;28;20262;-79
2021/07/18 06:46:50;;;;;;;6.70;4.97;;;19.70;87.30;;;;;;5073301;28;20641;-79
2021/07/18 06:49:15;;;;;;;7.90;5.80;;;19.70;86.40;;;;;;5073482;28;20620;-78
2021/07/18 06:51:41;;;;;;;10.10;6.93;;;19.70;87.30;;;;;;5073373;28;20169;-77
2021/07/18 06:54:07;;;;;;;9.70;7.83;;;19.90;87.50;;;;;;5073338;28;20517;-78
2021/07/18 06:56:33;;;;;;;12.80;7.67;;;20.00;85.00;;;;;;5073211;28;20249;-79
2021/07/18 06:58:59;;;;;;;10.40;8.40;;;20.20;78.20;;;;;;5073432;28;20228;-78
2021/07/18 07:01:25;;;;;;;10.47;7.97;;;20.20;73.10;;;;;;5073433;28;20177;-79
2021/07/18 07:03:51;;;;;;;10.33;8.73;;;20.20;71.90;;;;;;5073528;28;20216;-80
2021/07/18 07:06:17;;;;;;;19.53;7.63;;;20.20;69.20;;;;;;5074734;28;20196;-77
2021/07/18 07:08:43;;;;;;;9.13;6.63;;;20.20;67.60;;;;;;5075935;28;20185;-77
2021/07/18 07:11:08;;;;;;;11.47;7.50;;;20.30;58.80;;;;;;5083179;28;20182;-77
2021/07/18 07:13:35;;;;;;;9.77;6.83;;;20.50;60.40;;;;;;5077671;28;20189;-78
2021/07/18 07:16:00;;;;;;;8.20;5.53;;;20.50;56.80;;;;;;5073424;28;20164;-79
2021/07/18 07:18:27;;;;;;;8.67;5.23;;;20.60;52.40;;;;;;5076754;28;20232;-78
2021/07/18 07:20:53;;;;;;;6.70;4.90;;;20.80;44.10;;;;;;5073348;28;20215;-79
2021/07/18 07:23:18;;;;;;;8.50;5.23;;;20.80;37.10;;;;;;5072887;28;20644;-80
2021/07/18 07:25:45;;;;;;;6.40;4.63;;;20.90;42.70;;;;;;5072543;28;20174;-79
2021/07/18 07:28:10;;;;;;;8.07;4.83;;;21.10;43.40;;;;;;5075635;28;20220;-79
2021/07/18 07:30:36;;;;;;;6.67;4.60;;;21.20;33.80;;;;;;5077706;28;20635;-82
2021/07/18 07:33:03;;;;;;;6.10;3.77;;;21.30;27.50;;;;;;5076981;28;20175;-80
2021/07/18 07:35:29;;;;;;;6.33;4.10;;;21.30;22.10;;;;;;5077779;28;20689;-80
2021/07/18 07:37:54;;;;;;;5.70;3.50;;;21.40;22.10;;;;;;5077534;28;20171;-77
2021/07/18 07:40:20;;;;;;;7.03;4.00;;;21.40;19.90;;;;;;5077300;28;20209;-81
2021/07/18 07:42:46;;;;;;;5.43;3.40;;;21.40;19.80;;;;;;5077013;28;20249;-77
2021/07/18 07:45:12;;;;;;;6.73;3.30;;;21.50;18.50;;;;;;5076676;28;20179;-79
2021/07/18 07:47:39;;;;;;;5.10;3.03;;;21.50;19.90;;;;;;5076644;28;20171;-79
2021/07/18 07:50:07;;;;;;;5.57;3.10;;;21.50;12.60;;;;;;5077404;28;20167;-78
2021/07/18 07:52:33;;;;;;;5.60;3.53;;;21.60;15.30;;;;;;5076737;28;20646;-78
2021/07/18 07:54:59;;;;;;;5.63;2.77;;;21.70;14.30;;;;;;5075227;28;20631;-80
2021/07/18 07:57:25;;;;;;;5.80;2.80;;;21.80;8.80;;;;;;5076308;28;20207;-80
2021/07/18 07:59:51;;;;;;;6.13;2.80;;;21.90;10.50;;;;;;5075212;28;20264;-79
2021/07/18 08:02:16;;;;;;;4.67;2.60;;;22.00;12.40;;;;;;5076313;28;20653;-79
2021/07/18 08:04:42;;;;;;;4.13;2.80;;;22.20;5.50;;;;;;5075077;28;20184;-82
2021/07/18 08:07:08;;;;;;;3.80;2.33;;;22.30;1.00;;;;;;5075933;28;20199;-78
2021/07/18 08:09:33;;;;;;;4.37;2.50;;;22.40;1.00;;;;;;5075608;28;20247;-79
2021/07/18 08:11:59;;;;;;;3.37;2.17;;;22.60;1.00;;;;;;5076001;28;20641;-79
2021/07/18 08:14:25;;;;;;;6.77;2.20;;;22.70;1.00;;;;;;5076079;28;20203;-80
2021/07/18 08:16:51;;;;;;;3.57;1.90;;;22.70;1.00;;;;;;5076667;28;20184;-81
2021/07/18 08:19:17;;;;;;;3.53;2.03;;;22.60;1.00;;;;;;5075962;28;20264;-78
2021/07/18 08:21:42;;;;;;;4.17;2.20;;;22.70;1.00;;;;;;5075665;28;20227;-80
2021/07/18 08:24:09;;;;;;;5.40;1.80;;;22.70;1.00;;;;;;5075596;28;20601;-78
2021/07/18 08:26:35;;;;;;;4.43;2.60;;;22.80;1.00;;;;;;5075741;28;20166;-79
2021/07/18 08:29:00;;;;;;;3.50;2.00;;;22.90;1.00;;;;;;5075758;28;20207;-79
2021/07/18 08:31:26;;;;;;;3.83;2.20;;;22.90;1.00;;;;;;5075806;28;20170;-79
2021/07/18 08:33:53;;;;;;;4.93;2.20;;;22.90;1.00;;;;;;5076044;28;20173;-78
2021/07/18 08:36:18;;;;;;;3.87;2.67;;;23.00;1.00;;;;;;5076596;28;20183;-78
2021/07/18 08:38:44;;;;;;;3.70;2.30;;;22.90;1.00;;;;;;5074343;28;20177;-80
2021/07/18 08:41:10;;;;;;;4.93;2.40;;;23.10;1.00;;;;;;5075784;28;20210;-79
2021/07/18 08:43:36;;;;;;;4.07;1.80;;;23.30;1.00;;;;;;5075651;28;20223;-79
2021/07/18 08:46:03;;;;;;;4.13;2.00;;;23.30;1.00;;;;;;5075788;28;20182;-79
2021/07/18 08:48:30;;;;;;;2.33;1.60;;;23.50;1.00;;;;;;5075542;28;20177;-80
2021/07/18 08:50:56;;;;;;;3.10;1.77;;;23.40;1.00;;;;;;5075972;28;20180;-77
2021/07/18 08:53:25;;;;;;;2.47;1.63;;;23.50;1.00;;;;;;5075436;28;20169;-79
2021/07/18 08:55:51;;;;;;;5.00;2.20;;;23.50;1.00;;;;;;5075537;28;20196;-80
2021/07/18 08:58:17;;;;;;;3.60;2.20;;;23.50;1.00;;;;;;5075415;28;20702;-79
2021/07/18 09:00:43;;;;;;;5.50;1.60;;;23.60;1.00;;;;;;5076309;28;20178;-77
2021/07/18 09:03:17;;;;;;;3.87;1.70;;;23.60;1.00;;;;;;5075812;28;20708;-78
2021/07/18 09:05:44;;;;;;;3.50;1.63;;;23.60;1.00;;;;;;5078505;28;20199;-78
2021/07/18 09:08:18;;;;;;;4.80;2.70;;;23.70;1.00;;;;;;5077708;28;20174;-77
2021/07/18 09:10:47;;;;;;;4.00;1.80;;;23.90;1.00;;;;;;5083318;28;20171;-78
2021/07/18 09:13:13;;;;;;;4.13;1.93;;;23.90;1.00;;;;;;5082298;28;20188;-80
2021/07/18 09:15:54;;;;;;;2.90;1.80;;;24.00;1.00;;;;;;5087497;28;20171;-76
2021/07/18 09:18:24;;;;;;;4.53;2.10;;;24.00;1.00;;;;;;5084856;28;20174;-78
2021/07/18 09:20:52;;;;;;;2.20;1.50;;;24.10;1.00;;;;;;5090144;28;20198;-80
2021/07/18 09:23:28;;;;;;;2.57;1.70;;;24.30;1.00;;;;;;5082128;28;20302;-80
2021/07/18 09:26:16;;;;;;;4.30;2.10;;;24.60;1.00;;;;;;5075507;28;20155;-78
2021/07/18 09:28:41;;;;;;;3.30;2.00;;;24.50;1.00;;;;;;5074820;28;20170;-80
2021/07/18 09:31:34;;;;;;;4.33;1.60;;;24.30;1.00;;;;;;5075101;28;20234;-80
2021/07/18 09:34:14;;;;;;;4.63;1.93;;;24.20;1.00;;;;;;5074918;28;20174;-80
2021/07/18 09:36:40;;;;;;;3.70;1.93;;;24.20;1.00;;;;;;5074716;28;20164;-77
2021/07/18 09:39:08;;;;;;;4.63;1.77;;;24.40;1.00;;;;;;5075620;28;20174;-78
2021/07/18 09:41:39;;;;;;;4.87;2.10;;;24.50;1.00;;;;;;5074996;28;20663;-80
2021/07/18 09:44:05;;;;;;;4.00;1.80;;;24.60;1.00;;;;;;5079121;28;20238;-78
2021/07/18 09:46:32;;;;;;;6.10;2.30;;;24.70;1.00;;;;;;5085238;28;20654;-78
2021/07/18 09:49:00;;;;;;;4.33;2.10;;;24.80;1.00;;;;;;5082289;28;20176;-80
2021/07/18 09:51:26;;;;;;;5.30;2.30;;;24.80;1.00;;;;;;5074827;28;20179;-79
2021/07/18 09:54:12;;;;;;;5.70;2.03;;;24.80;1.00;;;;;;5075071;28;20234;-77
2021/07/18 09:56:39;;;;;;;5.23;1.90;;;24.80;1.00;;;;;;5075171;28;20164;-80
2021/07/18 09:59:05;;;;;;;3.67;1.93;;;24.70;1.00;;;;;;5074719;28;20168;-79
2021/07/18 10:01:35;;;;;;;3.10;1.90;;;24.80;1.00;;;;;;5075134;28;20237;-77
2021/07/18 10:04:02;;;;;;;3.73;2.37;;;24.80;1.00;;;;;;5074482;28;20206;-79
2021/07/18 10:06:31;;;;;;;3.73;1.87;;;24.80;1.00;;;;;;5074685;28;20632;-78
2021/07/18 10:08:59;;;;;;;4.07;2.23;;;24.80;1.00;;;;;;5074302;28;20234;-80
2021/07/18 10:11:30;;;;;;;2.77;2.17;;;24.80;1.00;;;;;;5074578;28;20182;-80
2021/07/18 10:13:58;;;;;;;3.87;2.20;;;24.90;1.00;;;;;;5073973;28;20195;-76
2021/07/18 10:16:26;;;;;;;4.50;2.37;;;25.00;1.00;;;;;;5073086;28;20180;-77
2021/07/18 10:18:54;;;;;;;4.40;2.70;;;25.30;1.00;;;;;;5074608;28;20225;-78
2021/07/18 10:21:23;;;;;;;3.10;2.40;;;25.40;1.00;;;;;;5073636;28;20745;-79
2021/07/18 10:23:51;;;;;;;3.93;2.70;;;25.40;1.00;;;;;;5073448;28;20212;-78
2021/07/18 10:26:22;;;;;;;3.30;2.60;;;25.50;1.00;;;;;;5073402;28;20203;-78
2021/07/18 10:28:49;;;;;;;5.30;2.73;;;25.50;1.00;;;;;;5073357;28;20172;-78
2021/07/18 10:31:29;;;;;;;4.30;2.77;;;25.40;1.00;;;;;;5073414;28;20172;-78
2021/07/18 10:33:55;;;;;;;4.53;3.00;;;25.20;1.00;;;;;;5073542;28;20172;-81
2021/07/18 10:36:24;;;;;;;5.10;2.93;;;25.20;1.00;;;;;;5073242;28;20659;-79
2021/07/18 10:38:50;;;;;;;5.50;2.80;;;25.20;1.00;;;;;;5073310;28;20183;-79
2021/07/18 10:41:17;;;;;;;5.13;3.00;;;25.30;1.00;;;;;;5073459;28;20600;-80
2021/07/18 10:43:50;;;;;;;4.60;3.13;;;25.30;1.00;;;;;;5073236;28;20687;-78
2021/07/18 10:46:41;;;;;;;4.50;3.10;;;25.20;1.00;;;;;;5073444;28;20187;-77
2021/07/18 10:49:12;;;;;;;6.13;3.13;;;25.40;1.00;;;;;;5072491;28;20260;-79
2021/07/18 10:51:39;;;;;;;4.47;2.80;;;25.40;1.00;;;;;;5073223;28;20171;-78
2021/07/18 10:54:13;;;;;;;4.80;3.17;;;25.30;1.00;;;;;;5073759;28;20179;-79
2021/07/18 10:56:50;;;;;;;4.90;3.50;;;25.40;1.00;;;;;;5073659;28;20166;-77
2021/07/18 10:59:35;;;;;;;6.17;3.50;;;25.20;1.00;;;;;;5076157;28;20234;-78
2021/07/18 11:02:16;;;;;;;7.57;4.43;;;25.30;1.00;;;;;;5075564;28;20545;-80
2021/07/18 11:04:51;;;;;;;7.10;4.23;;;25.20;1.00;;;;;;5076300;28;20179;-81
2021/07/18 11:07:20;;;;;;;7.83;4.63;;;25.10;1.00;;;;;;5075405;28;20167;-79
2021/07/18 11:09:50;;;;;;;7.83;5.20;;;25.20;1.00;;;;;;5074214;28;20180;-79
2021/07/18 11:12:35;;;;;;;5.93;4.73;;;25.40;1.00;;;;;;5073585;28;20655;-79
2021/07/18 11:15:17;;;;;;;7.13;5.40;;;25.60;1.00;;;;;;5073502;28;20164;-79
2021/07/18 11:18:03;;;;;;;7.53;5.60;;;25.70;1.00;;;;;;5071867;28;20259;-79
2021/07/18 11:20:47;;;;;;;6.90;6.03;;;25.70;1.00;;;;;;5072995;28;20221;-80
2021/07/18 11:23:37;;;;;;;8.63;5.37;;;25.80;1.00;;;;;;5071552;28;20229;-81
2021/07/18 11:26:03;;;;;;;7.57;5.87;;;25.80;1.00;;;;;;5073138;28;20629;-81
2021/07/18 11:28:35;;;;;;;8.83;5.67;;;25.80;1.00;;;;;;5073324;28;20166;-80
2021/07/18 11:31:10;;;;;;;8.33;5.33;;;25.80;1.00;;;;;;5073248;28;20232;-78
2021/07/18 11:34:05;;;;;;;8.57;5.10;;;25.90;1.00;;;;;;5073242;28;20175;-77
2021/07/18 11:36:31;;;;;;;8.83;4.63;;;25.60;1.00;;;;;;5073703;28;20160;-78
2021/07/18 11:38:58;;;;;;;5.50;4.43;;;25.60;1.00;;;;;;5073171;28;20227;-78
2021/07/18 11:41:27;;;;;;;5.23;4.40;;;25.70;1.00;;;;;;5072983;28;20164;-78
2021/07/18 11:44:01;;;;;;;6.37;3.83;;;25.80;1.00;;;;;;5073447;28;20321;-78
2021/07/18 11:46:34;;;;;;;4.93;3.30;;;25.80;1.00;;;;;;5072394;28;20179;-79
2021/07/18 11:49:01;;;;;;;6.80;3.70;;;25.80;1.00;;;;;;5073351;28;20221;-78
2021/07/18 11:51:28;;;;;;;6.10;3.47;;;25.90;1.00;;;;;;5073050;28;20164;-78
2021/07/18 11:53:56;;;;;;;6.30;4.07;;;25.90;1.00;;;;;;5071548;28;20179;-82
2021/07/18 11:56:23;;;;;;;7.03;3.70;;;26.00;1.00;;;;;;5072439;28;20192;-79
2021/07/18 11:58:58;;;;;;;6.80;4.97;;;26.00;1.00;;;;;;5072506;28;20164;-78
2021/07/18 12:01:28;;;;;;;6.50;3.70;;;26.00;1.00;;;;;;5072045;28;20197;-80
2021/07/18 12:03:54;;;;;;;5.13;3.20;;;26.10;1.00;;;;;;5072635;28;20226;-81
2021/07/18 12:06:21;;;;;;;4.77;3.33;;;26.20;1.00;;;;;;5071539;28;20644;-79
2021/07/18 12:08:47;;;;;;;5.70;3.57;;;26.30;1.00;;;;;;5072804;28;20176;-80
2021/07/18 12:11:13;;;;;;;5.30;3.00;;;26.20;1.00;;;;;;5072444;28;20179;-81
2021/07/18 12:13:43;;;;;;;5.70;3.03;;;26.30;1.00;;;;;;5075387;28;20172;-79
2021/07/18 12:16:10;;;;;;;5.73;3.20;;;26.40;1.00;;;;;;5076258;28;20221;-79
2021/07/18 12:18:44;;;;;;;4.93;3.60;;;26.30;1.00;;;;;;5076127;28;20171;-80
2021/07/18 12:21:36;;;;;;;3.90;3.10;;;26.20;1.00;;;;;;5075952;28;20164;-79
2021/07/18 12:24:16;;;;;;;6.13;3.70;;;26.40;1.00;;;;;;5078051;28;20713;-80
2021/07/18 12:27:03;;;;;;;5.23;3.30;;;26.60;1.00;;;;;;5076599;28;20164;-79
2021/07/18 12:29:45;;;;;;;6.13;3.10;;;26.70;1.00;;;;;;5076081;28;20259;-80
2021/07/18 12:32:11;;;;;;;5.77;3.03;;;26.90;1.00;;;;;;5075757;28;20234;-79
2021/07/18 12:34:44;;;;;;;5.67;3.20;;;26.60;1.00;;;;;;5076343;28;20636;-78
2021/07/18 12:37:15;;;;;;;5.17;3.00;;;26.50;1.00;;;;;;5076234;28;20176;-81
2021/07/18 12:39:42;;;;;;;4.70;2.90;;;26.50;1.00;;;;;;5076607;28;20168;-81
2021/07/18 12:42:20;;;;;;;5.47;3.10;;;26.50;1.00;;;;;;5076039;28;20308;-79
2021/07/18 12:44:51;;;;;;;5.03;3.20;;;26.60;1.00;;;;;;5075724;28;20176;-83
2021/07/18 12:47:22;;;;;;;7.63;3.47;;;26.80;1.00;;;;;;5076245;28;20262;-80
2021/07/18 12:50:26;;;;;;;6.17;3.20;;;27.00;1.00;;;;;;5075881;28;20199;-79
2021/07/18 12:53:00;;;;;;;4.80;3.13;;;26.60;1.00;;;;;;5074267;28;20224;-81
2021/07/18 12:55:28;;;;;;;5.00;3.17;;;26.60;1.00;;;;;;5074405;28;20675;-78